Flight Track Log - Related Links

Times and Time Zones

All times are in EDT time to prevent confusion due to time zone crossing. See the ELJ75 flight status page for this flight to view local times or setup timezone preferences in your user account.


Time Position Orientation Groundspeed Altitude Reporting Facility
EDT Latitude Longitude Course Direction KTS MPH feet Rate Location/Type
Fri 03:04:51 PM 32.9153 -79.9553 13° North 264 304 4,900  Level Jacksonville Center
Fri 03:05:51 PM 32.9819 -79.9458 North 279 321 7,900 2,500 Climbing Jacksonville Center
Fri 03:06:51 PM 33.0608 -79.9358 North 284 327 9,900 1,050 Climbing Jacksonville Center
Fri 03:07:51 PM 33.1400 -79.9281 North 302 348 10,000 1,300 Climbing Jacksonville Center
Fri 03:08:51 PM 33.2233 -79.9178 North 307 353 12,500 2,650 Climbing Jacksonville Center
Fri 03:09:00 PM 33.4627 -79.8631 13° North  Level FlightAware Approximate
Fri 03:09:51 PM 33.3086 -79.9078 North 307 353 15,300  Level Jacksonville Center
Fri 03:10:00 PM 33.5599 -79.8353 13° North  Level FlightAware Approximate
Fri 03:10:51 PM 33.3936 -79.8825 14° North 313 360 18,200  Level Jacksonville Center
Fri 03:11:51 PM 33.4783 -79.8472 19° North 313 360 21,100 2,850 Climbing Jacksonville Center
Fri 03:12:51 PM 33.5650 -79.8092 20° North 318 366 23,900 2,400 Climbing Jacksonville Center
Fri 03:13:51 PM 33.6517 -79.7689 21° North 324 373 25,900 1,500 Climbing Jacksonville Center
Fri 03:14:51 PM 33.7486 -79.7281 19° North 337 388 26,900 550 Climbing Jacksonville Center
Fri 03:15:51 PM 33.8561 -79.6842 19° North 374 430 27,000 50 Climbing Jacksonville Center
Fri 03:16:51 PM 33.9614 -79.6375 20° North 393 452 27,000  Level Jacksonville Center
Fri 03:17:51 PM 34.0667 -79.5911 20° North 398 458 27,000  Level Jacksonville Center
Fri 03:18:51 PM 34.1717 -79.5444 20° North 398 458 27,000  Level Jacksonville Center
Fri 03:21:22 PM 34.4336 -79.4319 20° North 403 464 27,000  Level Washington Center
Fri 03:22:23 PM 34.5417 -79.3789 22° Northeast 403 464 27,000  Level Washington Center
Fri 03:23:23 PM 34.6494 -79.3333 19° North 403 464 27,000 99 Level Washington Center
Fri 03:24:24 PM 34.7592 -79.2956 16° North 408 470 27,200 504 Climbing Washington Center
Fri 03:25:22 PM 34.8694 -79.3081 355° North 402 463 28,000 403 Climbing Washington Center
Fri 03:26:23 PM 34.9817 -79.3183 356° North 397 457 28,000 347 Level Washington Center
Fri 03:27:23 PM 35.0919 -79.3286 356° North 397 457 28,700 496 Climbing Washington Center
Fri 03:28:24 PM 35.2000 -79.3436 354° North 397 457 29,000 153 Climbing Washington Center
Fri 03:29:21 PM 35.3228 -79.3569 355° North 402 463 29,000  Level Washington Center
Fri 03:30:21 PM 35.4278 -79.3367 North 409 471 29,000  Level Washington Center
Fri 03:31:22 PM 35.5406 -79.2628 28° Northeast 409 471 29,000  Level Washington Center
Fri 03:32:22 PM 35.6281 -79.1953 32° Northeast 414 476 29,000  Level Washington Center
Fri 03:33:23 PM 35.7328 -79.1156 32° Northeast 420 483 29,000  Level Washington Center
Fri 03:34:23 PM 35.8439 -79.0308 32° Northeast 425 489 29,000  Level Washington Center
Fri 03:35:21 PM 35.9483 -78.9531 31° Northeast 425 489 29,000  Level Washington Center
Fri 03:36:22 PM 36.0528 -78.8703 33° Northeast 425 489 29,000  Level Washington Center
Fri 03:37:23 PM 36.1528 -78.7947 31° Northeast 430 495 29,000  Level Washington Center
Fri 03:38:24 PM 36.2572 -78.7164 31° Northeast 430 495 29,000  Level Washington Center
Fri 03:39:24 PM 36.3614 -78.6356 32° Northeast 430 495 29,000  Level Washington Center
Fri 03:40:21 PM 36.4636 -78.5542 33° Northeast 435 501 29,000  Level Washington Center
Fri 03:42:21 PM 36.6639 -78.3806 35° Northeast 442 509 29,000  Level Washington Center
Fri 03:43:21 PM 36.7642 -78.2908 36° Northeast 437 503 29,000  Level Washington Center
Fri 03:44:22 PM 36.8642 -78.2036 35° Northeast 437 503 29,000  Level Washington Center
Fri 03:45:23 PM 36.9642 -78.1158 35° Northeast 432 497 29,000  Level Washington Center
Fri 03:46:21 PM 37.0619 -78.0281 36° Northeast 432 497 29,000  Level Washington Center
Fri 03:47:22 PM 37.1594 -77.9400 36° Northeast 432 497 29,000  Level Washington Center
Fri 03:48:22 PM 37.2592 -77.8517 35° Northeast 432 497 29,000  Level Washington Center
Fri 03:49:23 PM 37.3589 -77.7658 34° Northeast 432 497 29,000  Level Washington Center
Fri 03:50:23 PM 37.4564 -77.6769 36° Northeast 432 497 29,000  Level Washington Center
Fri 03:51:21 PM 37.5558 -77.5906 35° Northeast 432 497 29,000  Level Washington Center
Fri 03:52:21 PM 37.6556 -77.5014 35° Northeast 432 497 29,000  Level Washington Center
Fri 03:53:21 PM 37.7550 -77.4094 36° Northeast 432 497 29,000  Level Washington Center
Fri 03:54:22 PM 37.8522 -77.3197 36° Northeast 432 497 29,000  Level Washington Center
Fri 03:55:22 PM 37.9494 -77.2297 36° Northeast 432 497 29,000 -50 Level Washington Center
Fri 03:56:23 PM 38.0486 -77.1422 35° Northeast 432 497 28,900 -744 Descending Washington Center
Fri 03:57:23 PM 38.1433 -77.0569 35° Northeast 427 491 27,500 -1,388 Descending Washington Center
Fri 03:58:24 PM 38.2383 -76.9636 38° Northeast 427 491 26,100 -763 Descending Washington Center
Fri 03:59:21 PM 38.3186 -76.8831 38° Northeast 427 491 26,000 -51 Descending Washington Center
Fri 04:00:22 PM 38.4133 -76.7842 39° Northeast 420 483 26,000  Level Washington Center
Fri 04:01:23 PM 38.5103 -76.6822 39° Northeast 433 498 26,000  Level Washington Center
Fri 04:02:21 PM 38.6050 -76.5800 40° Northeast 438 504 26,000  Level Washington Center
Fri 04:03:22 PM 38.7017 -76.4775 40° Northeast 443 510 26,000  Level Washington Center
Fri 04:04:22 PM 38.8294 -76.3992 26° Northeast 453 521 26,000  Level Washington Center
Fri 04:05:23 PM 38.9422 -76.3417 22° Northeast 448 516 26,000 -756 Level Washington Center
Fri 04:06:21 PM 39.0572 -76.2839 21° North 442 509 24,500 -1,008 Descending Washington Center
Fri 04:07:22 PM 39.1661 -76.2100 28° Northeast 432 497 24,000 -248 Descending Washington Center
Fri 04:08:22 PM 39.2478 -76.1222 40° Northeast 433 498 24,000 -350 Level Washington Center
Fri 04:09:22 PM 39.3397 -76.0289 38° Northeast 428 493 23,300 -934 Descending Washington Center
Fri 04:10:24 PM 39.4381 -75.9356 36° Northeast 428 493 22,100 -1,450 Descending Washington Center
Fri 04:11:22 PM 39.5342 -75.8417 37° Northeast 433 498 20,400 -2,512 Descending Washington Center
Fri 04:13:16 PM 39.7167 -75.6667 36° Northeast 389 448 14,900 -2,607 Descending Philadelphia TRACON
Fri 04:14:10 PM 39.7833 -75.6000 38° Northeast 368 423 13,100 -1,000 Descending Philadelphia TRACON
Fri 04:15:10 PM 39.8833 -75.5167 33° Northeast 372 428 13,000 -50 Descending Philadelphia TRACON
Fri 04:16:10 PM 39.9667 -75.4500 32° Northeast 377 434 13,000 -50 Level Philadelphia TRACON
Fri 04:17:10 PM 40.0500 -75.3667 37° Northeast 380 437 12,900  Descending Philadelphia TRACON
Fri 04:18:10 PM 40.1333 -75.2833 37° Northeast 375 432 13,000 -697 Climbing Philadelphia TRACON
Fri 04:19:45 PM 40.2500 -75.1667 37° Northeast 316 364 11,100 -1,084 Descending New York TRACON
Fri 04:20:45 PM 40.3333 -75.1000 31° Northeast 312 359 10,200 -1,450 Descending New York TRACON
Fri 04:21:45 PM 40.3833 -75.0167 52° Northeast 304 350 8,200 -2,000 Descending New York TRACON
Fri 04:22:45 PM 40.4500 -74.9500 37° Northeast 299 344 6,200 -1,900 Descending New York TRACON
Fri 04:23:45 PM 40.5000 -74.8667 52° Northeast 286 329 4,400 -1,100 Descending New York TRACON
Fri 04:24:45 PM 40.5500 -74.8000 45° Northeast 270 311 4,000 -200 Descending New York TRACON
Fri 04:25:45 PM 40.6167 -74.7500 30° Northeast 274 315 4,000  Level New York TRACON
Fri 04:26:39 PM 40.6833 -74.7167 21° North 269 310 4,000  Level New York TRACON
Fri 04:27:39 PM 40.7333 -74.6667 37° Northeast 272 313 4,000 -286 Level New York TRACON
Fri 04:28:45 PM 40.7833 -74.5833 52° Northeast 264 304 3,400 -500 Descending New York TRACON
Fri 04:29:39 PM 40.8333 -74.5167 45° Northeast 263 303 3,000 -200 Descending New York TRACON
Fri 04:30:45 PM 40.8833 -74.4500 45° Northeast 268 308 3,000  Level New York TRACON
Fri 04:31:45 PM 40.9333 -74.3667 52° Northeast 270 311 3,000  Level New York TRACON
Fri 04:32:39 PM 40.9667 -74.2833 62° Northeast 262 302 3,000 -345 Level New York TRACON
Fri 04:34:39 PM 41.0167 -74.1000 70° East 266 306 2,000 -323 Descending New York TRACON
Fri 04:35:45 PM 40.9500 -74.0500 150° Southeast 224 258 2,000 -400 Level New York TRACON
Fri 04:36:39 PM 40.9167 -74.0500 180° South 155 178 1,200 -737 Descending New York TRACON
Fri 04:37:39 PM 40.8833 -74.0500 180° South 106 122 600 -600 Descending New York TRACON
Fri 04:39:00 PM 40.8500 -74.0500 180° South  Level FlightAware Approximate

Login

Don't have an account? Register now (free) for customized features, flight alerts, and more!